Time;durP1;ratioP1;P1;durP2;ratioP2;P2;SDS_P1;SDS_P2;PMS_P1;PMS_P2;Temp;Humidity;BMP_temperature;BMP_pressure;BME280_temperature;BME280_humidity;BME280_pressure;Samples;Min_cycle;Max_cycle;Signal;HPM_P1;HPM_P2
2023/01/21 00:00:51;;;;;;;34.50;21.10;;;3.90;71.50;;;;;;5109854;28;20116;-67
2023/01/21 00:03:17;;;;;;;34.20;19.87;;;3.90;71.50;;;;;;5112786;28;20102;-67
2023/01/21 00:05:43;;;;;;;32.03;18.37;;;3.90;71.50;;;;;;5114527;28;20020;-67
2023/01/21 00:08:08;;;;;;;36.90;20.27;;;3.90;71.50;;;;;;5113278;28;20114;-68
2023/01/21 00:10:34;;;;;;;37.10;20.67;;;3.80;72.20;;;;;;5112418;28;20020;-67
2023/01/21 00:13:00;;;;;;;36.97;20.73;;;3.80;71.60;;;;;;5115941;28;20225;-67
2023/01/21 00:15:26;;;;;;;36.80;20.80;;;3.80;71.60;;;;;;5113607;28;20063;-67
2023/01/21 00:17:52;;;;;;;36.20;19.10;;;3.80;71.60;;;;;;5115292;28;20016;-67
2023/01/21 00:20:18;;;;;;;32.17;19.83;;;3.80;71.60;;;;;;5113004;28;20178;-68
2023/01/21 00:22:44;;;;;;;35.67;20.33;;;3.80;71.50;;;;;;5097010;28;20431;-67
2023/01/21 00:25:10;;;;;;;35.77;19.50;;;3.80;71.50;;;;;;5109684;28;20034;-67
2023/01/21 00:27:36;;;;;;;33.07;19.83;;;3.80;71.50;;;;;;5114394;28;20373;-67
2023/01/21 00:30:02;;;;;;;31.30;18.37;;;3.80;71.50;;;;;;5109819;28;20020;-68
2023/01/21 00:32:28;;;;;;;33.60;18.63;;;3.80;71.50;;;;;;5112206;28;20023;-68
2023/01/21 00:34:54;;;;;;;30.43;17.93;;;3.80;71.50;;;;;;5113958;28;20317;-67
2023/01/21 00:37:19;;;;;;;30.97;18.13;;;3.80;71.50;;;;;;5115080;28;20031;-68
2023/01/21 00:39:45;;;;;;;30.53;18.93;;;3.80;71.60;;;;;;5115220;27;20057;-67
2023/01/21 00:42:11;;;;;;;31.87;18.40;;;3.70;71.60;;;;;;5110786;28;20428;-67
2023/01/21 00:44:40;;;;;;;32.43;18.23;;;3.80;71.60;;;;;;5115169;28;20020;-67
2023/01/21 00:47:06;;;;;;;31.13;18.57;;;3.70;71.60;;;;;;5113074;28;20085;-67
2023/01/21 00:49:32;;;;;;;32.70;18.13;;;3.70;71.50;;;;;;5113183;28;20114;-67
2023/01/21 00:51:58;;;;;;;30.87;17.70;;;3.70;71.60;;;;;;5113884;28;20106;-67
2023/01/21 00:54:24;;;;;;;31.73;17.93;;;3.70;71.60;;;;;;5112965;28;20088;-68
2023/01/21 00:56:50;;;;;;;32.20;18.40;;;3.70;71.60;;;;;;5112928;28;20031;-67
2023/01/21 00:59:16;;;;;;;31.73;19.10;;;3.70;71.70;;;;;;5104208;28;20073;-68
2023/01/21 01:01:41;;;;;;;30.83;17.90;;;3.70;71.70;;;;;;5112696;28;20055;-67
2023/01/21 01:04:09;;;;;;;32.63;17.73;;;3.60;71.60;;;;;;5110579;28;20020;-67
2023/01/21 01:06:35;;;;;;;34.47;18.80;;;3.70;71.70;;;;;;5113493;28;20417;-67
2023/01/21 01:09:01;;;;;;;30.30;17.07;;;3.60;71.60;;;;;;5112625;28;20031;-67
2023/01/21 01:11:27;;;;;;;30.03;16.97;;;3.60;71.60;;;;;;5113559;28;20065;-68
2023/01/21 01:13:54;;;;;;;30.43;17.27;;;3.60;71.70;;;;;;5109397;28;20035;-67
2023/01/21 01:16:21;;;;;;;32.57;17.00;;;3.60;71.70;;;;;;5113199;28;20027;-67
2023/01/21 01:18:47;;;;;;;31.60;18.30;;;3.60;71.70;;;;;;5094329;28;20360;-67
2023/01/21 01:21:16;;;;;;;28.60;16.60;;;3.60;71.70;;;;;;5111491;28;20062;-68
2023/01/21 01:23:42;;;;;;;30.00;17.00;;;3.60;71.80;;;;;;5111694;28;20088;-67
2023/01/21 01:26:11;;;;;;;31.47;17.80;;;3.60;71.80;;;;;;5111993;28;20024;-67
2023/01/21 01:28:37;;;;;;;29.50;17.00;;;3.50;71.80;;;;;;5112861;28;20076;-65
2023/01/21 01:31:05;;;;;;;32.03;17.73;;;3.50;71.80;;;;;;5113680;28;20020;-65
2023/01/21 01:33:31;;;;;;;30.53;17.20;;;3.50;71.90;;;;;;5112691;28;20478;-66
2023/01/21 01:36:18;;;;;;;30.47;17.87;;;3.50;71.90;;;;;;5112897;28;20051;-66
2023/01/21 01:38:44;;;;;;;30.60;17.93;;;3.50;71.80;;;;;;5111578;28;20169;-66
2023/01/21 01:41:15;;;;;;;30.03;16.50;;;3.50;72.00;;;;;;5112715;28;20103;-66
2023/01/21 01:44:05;;;;;;;26.93;15.67;;;3.40;71.90;;;;;;5110642;28;20023;-66
2023/01/21 01:46:35;;;;;;;31.90;16.40;;;3.50;71.90;;;;;;5098371;28;20285;-66
2023/01/21 01:49:14;;;;;;;25.17;14.23;;;3.40;72.00;;;;;;5110561;28;20452;-66
2023/01/21 01:51:46;;;;;;;28.47;16.27;;;3.40;71.90;;;;;;5112541;28;20042;-66
2023/01/21 01:54:16;;;;;;;33.88;17.20;;;3.40;71.90;;;;;;5113900;28;20019;-65
2023/01/21 01:56:45;;;;;;;30.63;16.73;;;3.40;72.00;;;;;;5110506;28;20042;-65
2023/01/21 01:59:12;;;;;;;30.50;16.47;;;3.40;72.00;;;;;;5108909;28;20352;-66
2023/01/21 02:01:38;;;;;;;31.63;17.17;;;3.40;72.00;;;;;;5110792;28;20027;-66
2023/01/21 02:04:09;;;;;;;29.27;16.73;;;3.40;72.10;;;;;;5112247;28;20394;-66
2023/01/21 02:06:35;;;;;;;30.75;16.77;;;3.40;72.10;;;;;;5108514;28;20035;-65
2023/01/21 02:09:01;;;;;;;28.50;16.50;;;3.40;72.20;;;;;;5119725;27;20024;-66
2023/01/21 02:11:26;;;;;;;29.57;17.27;;;3.40;72.20;;;;;;5109844;28;20061;-66
2023/01/21 02:13:56;;;;;;;29.50;17.17;;;3.40;72.20;;;;;;5116977;27;20112;-66
2023/01/21 02:16:48;;;;;;;27.60;14.83;;;3.40;72.30;;;;;;5113037;27;20107;-65
2023/01/21 02:19:38;;;;;;;25.20;13.93;;;3.40;72.30;;;;;;5106929;28;20534;-65
2023/01/21 02:22:19;;;;;;;28.03;15.33;;;3.30;72.20;;;;;;5111192;28;20495;-66
2023/01/21 02:25:22;;;;;;;29.73;16.47;;;3.30;72.30;;;;;;5127759;27;20028;-65
2023/01/21 02:28:04;;;;;;;26.47;15.70;;;3.30;72.30;;;;;;5111021;27;20143;-65
2023/01/21 02:30:50;;;;;;;29.37;15.50;;;3.30;72.30;;;;;;5111957;28;20024;-66
2023/01/21 02:33:25;;;;;;;26.03;14.60;;;3.30;72.40;;;;;;5102264;27;20063;-66
2023/01/21 02:36:15;;;;;;;27.33;15.43;;;3.30;72.40;;;;;;5110717;28;20052;-66
2023/01/21 02:38:52;;;;;;;30.33;16.10;;;3.30;72.40;;;;;;5110025;28;20047;-66
2023/01/21 02:41:43;;;;;;;28.83;15.53;;;3.30;73.10;;;;;;5109642;28;20054;-65
2023/01/21 02:44:17;;;;;;;29.90;17.03;;;3.30;72.40;;;;;;5110885;28;20016;-66
2023/01/21 02:47:03;;;;;;;31.33;16.93;;;3.20;72.50;;;;;;5109338;28;20028;-66
2023/01/21 02:49:35;;;;;;;30.37;15.93;;;3.20;73.10;;;;;;5110592;28;20139;-66
2023/01/21 02:52:00;;;;;;;30.88;17.50;;;3.20;72.50;;;;;;5110107;28;20089;-66
2023/01/21 02:54:38;;;;;;;28.33;15.17;;;3.20;72.60;;;;;;5112529;28;20093;-66
2023/01/21 02:57:13;;;;;;;30.03;16.30;;;3.20;72.60;;;;;;5111196;28;20102;-65
2023/01/21 02:59:42;;;;;;;26.37;15.10;;;3.20;72.60;;;;;;5108255;28;20032;-66
2023/01/21 03:02:24;;;;;;;27.77;15.70;;;3.20;72.60;;;;;;5100269;28;20066;-66
2023/01/21 03:04:53;;;;;;;28.20;15.23;;;3.20;72.60;;;;;;5110373;28;20035;-66
2023/01/21 03:07:34;;;;;;;30.83;16.70;;;3.20;72.60;;;;;;5110344;28;20046;-66
2023/01/21 03:10:13;;;;;;;26.75;15.57;;;3.20;72.60;;;;;;5111522;28;20038;-66
2023/01/21 03:13:02;;;;;;;25.40;14.33;;;3.20;72.70;;;;;;5108439;28;20448;-66
2023/01/21 03:18:35;;;;;;;29.47;14.47;;;3.20;72.70;;;;;;5122733;28;20443;-65
2023/01/21 03:21:06;;;;;;;28.63;15.73;;;3.10;72.70;;;;;;5111167;28;20065;-65
2023/01/21 03:23:42;;;;;;;29.00;16.00;;;3.10;72.80;;;;;;5110026;28;20489;-65
2023/01/21 03:26:12;;;;;;;31.27;17.53;;;3.10;72.80;;;;;;5111524;28;20020;-66
2023/01/21 03:28:44;;;;;;;32.60;16.67;;;3.10;72.90;;;;;;5109154;28;20034;-65
2023/01/21 03:31:16;;;;;;;28.07;15.87;;;3.10;73.00;;;;;;5112624;28;20437;-66
2023/01/21 03:33:45;;;;;;;32.17;16.83;;;3.10;72.90;;;;;;5117356;28;20023;-66
2023/01/21 03:36:20;;;;;;;32.27;16.53;;;3.10;72.90;;;;;;5110698;28;20082;-66
2023/01/21 03:38:50;;;;;;;30.97;15.87;;;3.10;72.90;;;;;;5125077;28;20031;-66
2023/01/21 03:41:27;;;;;;;28.37;15.73;;;3.10;72.90;;;;;;5111139;28;20379;-66
2023/01/21 03:43:53;;;;;;;31.73;16.87;;;3.10;73.00;;;;;;5109718;28;20085;-66
2023/01/21 03:46:29;;;;;;;32.27;16.80;;;3.10;73.00;;;;;;5112900;28;20023;-66
2023/01/21 03:48:58;;;;;;;28.80;15.77;;;3.10;73.00;;;;;;5115011;28;20040;-67
2023/01/21 03:51:37;;;;;;;31.57;16.43;;;3.10;73.00;;;;;;5114075;28;20031;-66
2023/01/21 03:54:02;;;;;;;34.97;16.37;;;3.10;73.00;;;;;;5114171;28;20027;-66
2023/01/21 03:56:28;;;;;;;29.67;16.00;;;3.10;73.00;;;;;;5114920;27;20023;-67
2023/01/21 03:58:54;;;;;;;35.80;17.77;;;3.10;73.00;;;;;;5114766;28;20066;-66
2023/01/21 04:01:20;;;;;;;30.00;16.67;;;3.10;73.00;;;;;;5111957;28;20059;-66
2023/01/21 04:03:46;;;;;;;30.03;15.63;;;3.10;73.00;;;;;;5113644;28;20456;-66
2023/01/21 04:06:14;;;;;;;28.90;15.80;;;3.10;73.00;;;;;;5114063;28;20027;-66
2023/01/21 04:08:40;;;;;;;29.63;17.70;;;3.10;73.00;;;;;;5113199;28;20028;-66
2023/01/21 04:11:07;;;;;;;33.50;16.57;;;3.10;73.00;;;;;;5113082;28;20479;-67
2023/01/21 04:13:33;;;;;;;29.03;15.37;;;3.10;73.10;;;;;;5115259;28;20107;-66
2023/01/21 04:15:58;;;;;;;29.07;16.00;;;3.00;73.00;;;;;;5111751;28;20039;-67
2023/01/21 04:18:24;;;;;;;32.37;17.07;;;3.00;73.10;;;;;;5115496;28;20036;-66
2023/01/21 04:20:50;;;;;;;34.13;17.50;;;3.00;73.10;;;;;;5112731;28;20452;-66
2023/01/21 04:23:16;;;;;;;27.77;15.93;;;3.10;73.20;;;;;;5115330;28;20030;-66
2023/01/21 04:25:41;;;;;;;36.57;17.90;;;3.00;73.10;;;;;;5109579;28;20032;-66
2023/01/21 04:28:07;;;;;;;34.57;17.80;;;3.00;73.10;;;;;;5114590;28;20151;-66
2023/01/21 04:30:33;;;;;;;31.43;17.00;;;3.00;73.20;;;;;;5112454;28;20115;-66
2023/01/21 04:32:58;;;;;;;30.80;17.07;;;3.00;73.20;;;;;;5114506;28;20024;-66
2023/01/21 04:35:24;;;;;;;30.80;15.77;;;3.00;73.20;;;;;;5105607;28;20066;-66
2023/01/21 04:37:50;;;;;;;28.77;16.53;;;3.00;73.90;;;;;;5109500;28;20072;-66
2023/01/21 04:40:16;;;;;;;30.87;16.13;;;3.00;73.20;;;;;;5110848;28;20452;-66
2023/01/21 04:42:42;;;;;;;33.27;17.17;;;3.00;73.20;;;;;;5110775;28;20149;-66
2023/01/21 04:45:08;;;;;;;29.43;16.80;;;3.00;73.20;;;;;;5110126;28;20057;-66
2023/01/21 04:47:34;;;;;;;33.33;17.70;;;3.00;73.30;;;;;;5111660;27;20126;-66
2023/01/21 04:50:01;;;;;;;30.50;17.17;;;3.00;73.30;;;;;;5109351;27;20119;-66
2023/01/21 04:52:26;;;;;;;30.40;16.10;;;3.00;73.30;;;;;;5109695;27;20019;-66
2023/01/21 04:54:52;;;;;;;30.70;18.63;;;2.90;73.30;;;;;;5107449;27;20031;-66
2023/01/21 04:57:18;;;;;;;33.13;18.27;;;2.90;73.30;;;;;;5102559;27;20032;-67
2023/01/21 04:59:44;;;;;;;31.67;16.43;;;2.90;73.30;;;;;;5112157;27;20028;-66
2023/01/21 05:02:09;;;;;;;33.73;18.20;;;2.90;73.30;;;;;;5110653;27;20015;-66
2023/01/21 05:04:35;;;;;;;30.03;16.63;;;2.90;73.30;;;;;;5097869;28;20580;-66
2023/01/21 05:07:01;;;;;;;33.90;17.70;;;2.90;73.30;;;;;;5107370;27;20476;-66
2023/01/21 05:09:27;;;;;;;36.17;19.57;;;2.90;73.40;;;;;;5105861;27;20032;-66
2023/01/21 05:11:53;;;;;;;32.73;17.97;;;2.90;73.40;;;;;;5105484;27;20410;-66
2023/01/21 05:14:19;;;;;;;33.03;18.00;;;2.90;73.50;;;;;;5106746;27;20043;-66
2023/01/21 05:16:44;;;;;;;34.30;18.50;;;2.80;73.50;;;;;;5104149;27;20107;-66
2023/01/21 05:19:11;;;;;;;33.73;17.30;;;2.80;73.50;;;;;;5114383;27;20059;-66
2023/01/21 05:21:37;;;;;;;31.13;17.73;;;2.80;73.50;;;;;;5111987;27;20368;-66
2023/01/21 05:24:02;;;;;;;35.20;18.77;;;2.80;73.60;;;;;;5107818;27;20039;-66
2023/01/21 05:26:28;;;;;;;31.27;18.07;;;2.80;73.60;;;;;;5111823;27;20098;-66
2023/01/21 05:28:54;;;;;;;36.87;19.13;;;2.80;73.70;;;;;;5111909;27;20418;-66
2023/01/21 05:31:19;;;;;;;36.90;19.53;;;2.80;73.70;;;;;;5109143;28;20032;-67
2023/01/21 05:33:46;;;;;;;37.57;18.83;;;2.80;73.70;;;;;;5108376;27;20039;-66
2023/01/21 05:36:11;;;;;;;34.63;18.30;;;2.80;73.70;;;;;;5110684;27;20036;-66
2023/01/21 05:38:37;;;;;;;38.67;19.77;;;2.70;73.70;;;;;;5107094;28;20321;-66
2023/01/21 05:41:03;;;;;;;35.40;19.57;;;2.70;73.70;;;;;;5111072;28;20031;-66
2023/01/21 05:43:29;;;;;;;35.87;18.03;;;2.80;73.80;;;;;;5109678;27;20031;-66
2023/01/21 05:45:55;;;;;;;29.27;17.37;;;2.80;73.80;;;;;;5112285;27;20027;-66
2023/01/21 05:48:22;;;;;;;38.63;19.40;;;2.80;73.80;;;;;;5108047;27;20356;-66
2023/01/21 05:50:48;;;;;;;38.97;19.40;;;2.80;73.80;;;;;;5116657;27;20024;-67
2023/01/21 05:53:15;;;;;;;40.37;19.97;;;2.80;73.80;;;;;;5112192;27;20032;-66
2023/01/21 05:55:40;;;;;;;37.37;20.87;;;2.80;73.80;;;;;;5109750;27;20425;-66
2023/01/21 05:58:06;;;;;;;41.17;19.57;;;2.80;73.90;;;;;;5107184;28;20024;-66
2023/01/21 06:00:32;;;;;;;34.87;18.97;;;2.80;73.90;;;;;;5113122;27;20027;-66
2023/01/21 06:03:02;;;;;;;38.00;19.43;;;2.80;73.90;;;;;;5096636;28;20028;-66
2023/01/21 06:05:28;;;;;;;38.50;19.70;;;2.80;74.00;;;;;;5113380;27;20355;-67
2023/01/21 06:07:54;;;;;;;37.97;19.20;;;2.80;74.00;;;;;;5111448;27;20028;-66
2023/01/21 06:10:20;;;;;;;35.10;19.03;;;2.80;74.00;;;;;;5111162;27;20038;-66
2023/01/21 06:12:50;;;;;;;37.47;19.37;;;2.80;74.00;;;;;;5114782;27;20035;-66
2023/01/21 06:15:15;;;;;;;39.00;19.37;;;2.80;74.00;;;;;;5110060;28;20638;-66
2023/01/21 06:17:41;;;;;;;37.53;18.37;;;2.80;74.10;;;;;;5112361;28;20036;-66
2023/01/21 06:20:08;;;;;;;39.27;20.03;;;2.80;74.20;;;;;;5108402;28;20028;-66
2023/01/21 06:22:33;;;;;;;41.50;19.90;;;2.80;74.20;;;;;;5113086;28;20139;-66
2023/01/21 06:24:59;;;;;;;43.43;21.07;;;2.80;74.20;;;;;;5109696;28;20048;-66
2023/01/21 06:27:25;;;;;;;39.53;19.50;;;2.80;74.30;;;;;;5113008;28;20035;-66
2023/01/21 06:29:50;;;;;;;45.00;21.30;;;2.90;74.40;;;;;;5106050;28;20034;-66
2023/01/21 06:32:16;;;;;;;39.27;20.27;;;2.80;74.40;;;;;;5111816;28;20024;-66
2023/01/21 06:34:42;;;;;;;40.23;19.30;;;2.80;74.40;;;;;;5107863;28;20023;-66
2023/01/21 06:37:07;;;;;;;39.70;20.53;;;2.90;74.50;;;;;;5110201;28;20043;-66
2023/01/21 06:39:33;;;;;;;37.13;20.10;;;2.90;74.50;;;;;;5106907;28;20032;-66
2023/01/21 06:41:59;;;;;;;39.20;19.93;;;2.90;74.50;;;;;;5108730;28;20382;-67
2023/01/21 06:44:25;;;;;;;37.40;19.20;;;2.80;74.50;;;;;;5095501;28;20024;-66
2023/01/21 06:46:50;;;;;;;42.80;21.00;;;2.90;74.60;;;;;;5091881;28;20120;-66
2023/01/21 06:49:16;;;;;;;44.47;21.87;;;2.80;74.60;;;;;;5115795;28;20126;-66
2023/01/21 06:51:42;;;;;;;43.77;19.57;;;2.90;74.70;;;;;;5096549;28;20019;-66
2023/01/21 06:54:09;;;;;;;39.67;20.80;;;2.90;74.70;;;;;;5099475;28;20032;-66
2023/01/21 06:56:35;;;;;;;39.93;19.77;;;2.90;74.80;;;;;;5105216;28;20467;-66
2023/01/21 06:59:02;;;;;;;38.77;19.23;;;2.80;74.70;;;;;;5112837;28;20028;-66
2023/01/21 07:01:28;;;;;;;38.97;18.87;;;2.80;74.80;;;;;;5109625;28;20019;-66
2023/01/21 07:03:54;;;;;;;42.27;21.13;;;2.80;74.90;;;;;;5107788;28;20035;-66
2023/01/21 07:06:21;;;;;;;39.73;19.73;;;2.80;74.90;;;;;;5112057;28;20043;-67
2023/01/21 07:08:47;;;;;;;39.60;18.50;;;2.80;74.90;;;;;;5102890;28;20345;-67
2023/01/21 07:11:13;;;;;;;42.67;18.47;;;2.80;75.00;;;;;;5108723;28;20107;-67
2023/01/21 07:13:39;;;;;;;39.83;19.07;;;2.80;75.00;;;;;;5101712;28;20418;-67
2023/01/21 07:16:05;;;;;;;41.23;19.80;;;2.80;75.00;;;;;;5098643;28;20032;-67
2023/01/21 07:18:31;;;;;;;43.30;21.03;;;2.80;75.10;;;;;;5113730;28;20028;-67
2023/01/21 07:20:56;;;;;;;36.27;17.90;;;2.80;75.10;;;;;;5115533;28;20379;-66
2023/01/21 07:23:23;;;;;;;40.23;19.90;;;2.80;75.10;;;;;;5124801;27;20110;-67
2023/01/21 07:25:48;;;;;;;38.57;18.37;;;2.90;75.20;;;;;;5116343;28;20055;-67
2023/01/21 07:28:14;;;;;;;45.20;21.20;;;2.90;75.20;;;;;;5116872;28;20063;-67
2023/01/21 07:30:40;;;;;;;38.77;18.57;;;2.90;75.30;;;;;;5116721;28;20460;-67
2023/01/21 07:33:08;;;;;;;38.27;18.27;;;2.80;75.20;;;;;;5115303;27;20023;-67
2023/01/21 07:35:35;;;;;;;41.80;19.73;;;2.90;75.30;;;;;;5116620;28;20105;-67
2023/01/21 07:38:01;;;;;;;42.53;20.20;;;2.90;76.00;;;;;;5118046;28;20031;-66
2023/01/21 07:40:26;;;;;;;42.27;19.80;;;2.90;75.30;;;;;;5116715;28;20118;-68
2023/01/21 07:42:53;;;;;;;42.40;20.10;;;2.90;75.30;;;;;;5106222;28;20036;-68
2023/01/21 07:45:20;;;;;;;40.53;20.07;;;2.90;75.30;;;;;;5106168;28;20020;-68
2023/01/21 07:47:46;;;;;;;37.77;17.73;;;2.90;75.30;;;;;;5100346;28;20028;-67
2023/01/21 07:50:12;;;;;;;39.63;19.53;;;3.00;75.40;;;;;;5107304;28;20076;-67
2023/01/21 07:52:39;;;;;;;39.53;19.27;;;3.00;75.40;;;;;;5113943;28;20027;-67
2023/01/21 07:55:05;;;;;;;36.63;19.70;;;3.00;75.30;;;;;;5112531;28;20023;-66
2023/01/21 07:57:31;;;;;;;39.70;19.60;;;3.00;75.40;;;;;;5110310;28;20066;-66
2023/01/21 07:59:57;;;;;;;43.60;22.50;;;3.00;75.40;;;;;;5111164;28;20383;-66
2023/01/21 08:02:23;;;;;;;42.23;20.80;;;3.00;75.40;;;;;;5111835;27;20015;-66
2023/01/21 08:04:49;;;;;;;38.23;19.80;;;3.00;75.50;;;;;;5116164;27;20053;-67
2023/01/21 08:07:14;;;;;;;42.37;20.43;;;3.00;75.50;;;;;;5110639;27;20020;-66
2023/01/21 08:09:40;;;;;;;38.60;19.33;;;3.00;75.50;;;;;;5110180;27;20365;-66
2023/01/21 08:12:07;;;;;;;40.80;19.37;;;3.00;75.40;;;;;;5113682;28;20036;-66
2023/01/21 08:14:34;;;;;;;42.00;21.07;;;3.10;75.40;;;;;;5113685;27;20069;-65
2023/01/21 08:17:00;;;;;;;44.10;20.50;;;3.10;75.40;;;;;;5111800;28;20845;-67
2023/01/21 08:19:26;;;;;;;37.20;20.00;;;3.10;75.40;;;;;;5112773;27;20073;-66
2023/01/21 08:21:52;;;;;;;39.60;20.50;;;3.10;75.40;;;;;;5113781;27;20456;-66
2023/01/21 08:24:18;;;;;;;39.27;20.97;;;3.10;75.40;;;;;;5112546;28;20020;-65
2023/01/21 08:26:44;;;;;;;41.63;19.80;;;3.20;75.40;;;;;;5106940;27;20102;-65
2023/01/21 08:29:10;;;;;;;36.80;18.40;;;3.20;75.40;;;;;;5102969;27;20456;-65
2023/01/21 08:31:36;;;;;;;33.40;17.70;;;3.20;75.30;;;;;;5099043;27;20055;-65
2023/01/21 08:34:02;;;;;;;38.17;19.27;;;3.20;75.30;;;;;;5108265;27;20057;-66
2023/01/21 08:36:27;;;;;;;37.37;19.43;;;3.30;76.00;;;;;;5100344;28;20044;-66
2023/01/21 08:38:54;;;;;;;37.90;19.17;;;3.30;75.20;;;;;;5101571;27;20151;-66
2023/01/21 08:41:20;;;;;;;36.30;19.43;;;3.30;75.20;;;;;;5109481;27;20020;-65
2023/01/21 08:43:46;;;;;;;37.53;18.83;;;3.30;75.20;;;;;;5113276;27;20479;-66
2023/01/21 08:46:13;;;;;;;35.23;18.40;;;3.40;75.30;;;;;;5111081;27;20031;-66
2023/01/21 08:48:38;;;;;;;35.67;18.47;;;3.40;75.20;;;;;;5101227;27;20460;-66
2023/01/21 08:51:05;;;;;;;36.47;18.93;;;3.40;75.10;;;;;;5105669;27;20020;-66
2023/01/21 08:53:31;;;;;;;39.30;20.20;;;3.40;75.10;;;;;;5103363;28;20047;-65
2023/01/21 08:56:03;;;;;;;35.60;18.17;;;3.40;75.10;;;;;;5102440;27;20023;-66
2023/01/21 08:58:30;;;;;;;37.00;18.43;;;3.50;75.20;;;;;;5097463;27;20115;-66
2023/01/21 09:00:57;;;;;;;34.47;17.93;;;3.50;75.10;;;;;;5100303;28;20420;-66
2023/01/21 09:03:23;;;;;;;35.73;18.23;;;3.50;75.10;;;;;;5101432;27;20020;-65
2023/01/21 09:05:51;;;;;;;37.93;19.57;;;3.50;75.00;;;;;;5099315;27;20415;-65
2023/01/21 09:08:18;;;;;;;36.93;19.00;;;3.60;75.00;;;;;;5103730;27;20361;-66
2023/01/21 09:11:02;;;;;;;40.17;20.50;;;3.60;74.90;;;;;;5105341;27;20461;-66
2023/01/21 09:13:29;;;;;;;37.37;19.97;;;3.60;74.90;;;;;;5106464;27;20024;-66
2023/01/21 09:15:55;;;;;;;39.50;20.13;;;3.70;74.80;;;;;;5102336;27;20020;-65
2023/01/21 09:18:21;;;;;;;36.07;19.17;;;3.70;74.80;;;;;;5103292;28;20031;-65
2023/01/21 09:20:47;;;;;;;36.90;18.90;;;3.70;74.70;;;;;;5114965;28;20157;-65
2023/01/21 09:23:25;;;;;;;40.10;19.57;;;3.70;74.60;;;;;;5112613;28;20104;-66
2023/01/21 09:26:05;;;;;;;39.40;18.90;;;3.80;74.70;;;;;;5106414;28;20090;-65
2023/01/21 09:28:36;;;;;;;36.37;18.20;;;3.80;74.60;;;;;;5106246;28;20024;-66
2023/01/21 09:31:09;;;;;;;34.78;17.60;;;3.80;74.50;;;;;;5112124;28;20016;-65
2023/01/21 09:33:36;;;;;;;36.13;17.90;;;3.90;74.60;;;;;;5111023;28;20057;-69
2023/01/21 09:36:05;;;;;;;38.73;20.50;;;3.90;74.50;;;;;;5104759;28;20036;-66
2023/01/21 09:38:32;;;;;;;36.87;18.70;;;3.90;74.50;;;;;;5114277;28;20019;-65
2023/01/21 09:41:25;;;;;;;38.10;19.33;;;4.00;74.50;;;;;;5114059;28;20031;-66
2023/01/21 09:44:02;;;;;;;37.03;18.77;;;4.00;74.50;;;;;;5100749;28;20176;-65
2023/01/21 09:46:48;;;;;;;38.87;18.90;;;4.00;74.40;;;;;;5114123;28;20051;-66
2023/01/21 09:49:21;;;;;;;35.37;17.13;;;4.10;74.50;;;;;;5108993;28;20058;-66
2023/01/21 09:51:53;;;;;;;37.93;18.90;;;4.10;74.40;;;;;;5104042;28;20139;-65
2023/01/21 09:54:28;;;;;;;37.90;19.33;;;4.10;74.30;;;;;;5110558;28;20024;-66
2023/01/21 09:57:20;;;;;;;36.37;19.47;;;4.20;74.30;;;;;;5109046;28;20067;-66
2023/01/21 10:00:06;;;;;;;35.27;18.33;;;4.20;74.30;;;;;;5119554;27;20027;-66
2023/01/21 10:03:08;;;;;;;35.17;18.33;;;4.20;74.10;;;;;;5130154;27;20107;-66
2023/01/21 10:06:08;;;;;;;39.17;18.50;;;4.30;74.10;;;;;;5112996;27;20047;-66
2023/01/21 10:08:52;;;;;;;39.00;19.13;;;4.30;74.10;;;;;;5111183;27;20130;-67
2023/01/21 10:11:42;;;;;;;39.37;19.93;;;4.30;74.10;;;;;;5092751;28;20024;-66
2023/01/21 10:14:16;;;;;;;36.47;18.30;;;4.30;74.10;;;;;;5104414;28;20106;-66
2023/01/21 10:17:13;;;;;;;31.97;17.03;;;4.30;74.10;;;;;;5099322;28;20030;-66
2023/01/21 10:20:05;;;;;;;33.80;17.43;;;4.40;74.00;;;;;;5113158;28;20032;-69
2023/01/21 10:22:31;;;;;;;38.70;19.55;;;4.40;73.90;;;;;;5094726;28;20441;-68
2023/01/21 10:25:03;;;;;;;33.63;19.03;;;4.40;73.90;;;;;;5112886;28;20028;-69
2023/01/21 10:27:31;;;;;;;;;;;4.50;73.90;;;;;;5095840;28;20024;-69
2023/01/21 10:30:08;;;;;;;30.30;15.00;;;4.40;73.80;;;;;;5110459;28;19914;-69
2023/01/21 10:32:38;;;;;;;30.17;16.60;;;4.40;73.90;;;;;;5119304;27;20047;-69
2023/01/21 10:35:18;;;;;;;31.93;16.40;;;4.40;73.90;;;;;;5104294;28;20390;-69
2023/01/21 10:38:07;;;;;;;36.67;18.23;;;4.50;74.00;;;;;;5094230;28;20051;-68
2023/01/21 10:40:54;;;;;;;37.37;17.97;;;4.50;73.90;;;;;;5112418;28;20035;-69
2023/01/21 10:43:30;;;;;;;32.83;16.07;;;4.60;73.90;;;;;;5112413;28;20368;-69
2023/01/21 10:46:14;;;;;;;35.17;17.60;;;4.60;73.80;;;;;;5107559;28;20032;-69
2023/01/21 10:48:45;;;;;;;34.10;17.40;;;4.70;73.70;;;;;;5100539;28;20042;-68
2023/01/21 10:51:30;;;;;;;33.83;18.25;;;4.70;73.60;;;;;;5113131;28;20031;-68
2023/01/21 10:54:43;;;;;;;36.20;19.17;;;4.80;73.60;;;;;;5111642;28;20056;-69
2023/01/21 10:57:25;;;;;;;;;;;4.90;73.40;;;;;;5098819;28;20032;-68
2023/01/21 10:59:54;;;;;;;32.53;15.73;;;5.00;73.30;;;;;;5107092;28;20363;-68
2023/01/21 11:02:30;;;;;;;29.90;15.13;;;5.10;73.10;;;;;;5118870;28;20425;-68
2023/01/21 11:05:00;;;;;;;35.00;17.03;;;5.20;73.00;;;;;;5101474;28;20024;-68
2023/01/21 11:07:31;;;;;;;30.20;16.03;;;5.20;72.90;;;;;;5118089;28;20027;-67
2023/01/21 11:09:59;;;;;;;31.08;17.98;;;5.20;72.90;;;;;;5104832;28;20027;-67
2023/01/21 11:12:26;;;;;;;29.17;15.47;;;5.30;72.90;;;;;;5117323;28;20428;-67
2023/01/21 11:14:57;;;;;;;34.77;17.13;;;5.40;72.80;;;;;;5111782;28;20032;-69
2023/01/21 11:17:49;;;;;;;;;;;5.40;72.70;;;;;;5117130;28;20024;-68
2023/01/21 11:20:17;;;;;;;31.33;15.38;;;5.40;72.60;;;;;;5113924;27;19919;-69
2023/01/21 11:22:51;;;;;;;33.97;16.43;;;5.50;72.50;;;;;;5116890;28;20030;-69
2023/01/21 11:25:43;;;;;;;30.53;14.87;;;5.70;72.30;;;;;;5123404;27;20023;-68
2023/01/21 11:28:24;;;;;;;31.10;16.03;;;5.90;71.80;;;;;;5103247;28;20063;-69
2023/01/21 11:31:13;;;;;;;34.58;16.90;;;6.00;71.60;;;;;;5107980;28;20393;-69
2023/01/21 11:33:41;;;;;;;33.13;16.57;;;6.10;71.40;;;;;;5116883;28;20054;-68
2023/01/21 11:36:18;;;;;;;32.83;16.10;;;6.20;71.20;;;;;;5116480;28;20040;-67
2023/01/21 11:38:47;;;;;;;28.60;15.17;;;6.30;71.00;;;;;;5115618;28;20439;-68
2023/01/21 11:41:21;;;;;;;29.07;15.43;;;6.30;71.00;;;;;;5107628;28;20448;-67
2023/01/21 11:43:53;;;;;;;30.10;15.27;;;6.30;70.90;;;;;;5113443;28;20028;-67
2023/01/21 11:46:20;;;;;;;31.10;16.33;;;6.30;70.80;;;;;;5115085;28;20027;-67
2023/01/21 11:48:46;;;;;;;29.90;15.63;;;6.30;70.70;;;;;;5116538;28;20040;-67
2023/01/21 11:51:12;;;;;;;30.97;15.27;;;6.30;70.80;;;;;;5105854;28;20444;-68
2023/01/21 11:53:39;;;;;;;28.90;15.43;;;6.20;70.80;;;;;;5103690;27;20032;-67
2023/01/21 11:56:06;;;;;;;27.63;14.47;;;6.20;71.00;;;;;;5100529;27;20040;-68
2023/01/21 11:58:34;;;;;;;27.73;14.63;;;6.10;71.00;;;;;;5117304;27;20070;-68
2023/01/21 12:01:04;;;;;;;26.93;13.70;;;6.10;71.10;;;;;;5095374;28;20064;-69
2023/01/21 12:03:35;;;;;;;23.47;11.87;;;6.10;71.00;;;;;;5115497;28;20028;-69
2023/01/21 12:06:02;;;;;;;25.42;13.07;;;6.00;70.90;;;;;;5104881;27;20032;-68
2023/01/21 12:08:32;;;;;;;24.03;12.03;;;6.00;70.90;;;;;;5094606;28;20487;-68
2023/01/21 12:11:03;;;;;;;23.37;12.73;;;5.90;70.80;;;;;;5105952;27;20020;-68
2023/01/21 12:13:38;;;;;;;22.00;12.15;;;5.90;70.80;;;;;;5095602;27;20034;-69
2023/01/21 12:16:25;;;;;;;26.03;13.10;;;5.90;70.80;;;;;;5086783;28;20023;-69
2023/01/21 12:19:06;;;;;;;24.57;13.03;;;5.90;70.70;;;;;;5116503;28;20027;-68
2023/01/21 12:21:50;;;;;;;25.35;13.63;;;5.90;70.80;;;;;;5112240;28;20020;-69
2023/01/21 12:24:33;;;;;;;22.13;11.77;;;5.90;70.80;;;;;;5108543;28;20472;-71
2023/01/21 12:26:59;;;;;;;25.40;13.43;;;5.90;70.70;;;;;;5113537;28;20154;-70
2023/01/21 12:29:36;;;;;;;26.00;13.17;;;5.90;70.70;;;;;;5116831;28;20123;-69
2023/01/21 12:32:27;;;;;;;24.13;12.97;;;5.90;70.70;;;;;;5111417;28;20044;-70
2023/01/21 12:35:08;;;;;;;26.10;13.53;;;5.90;70.60;;;;;;5112821;28;20114;-70
2023/01/21 12:37:57;;;;;;;26.00;13.13;;;5.90;70.60;;;;;;5113190;28;20044;-69
2023/01/21 12:40:41;;;;;;;26.57;12.77;;;5.90;70.50;;;;;;5116729;28;20356;-68
2023/01/21 12:43:26;;;;;;;25.30;12.53;;;5.90;70.50;;;;;;5096579;28;20031;-68
2023/01/21 12:46:11;;;;;;;24.00;12.97;;;6.00;70.50;;;;;;5114852;28;20047;-69
2023/01/21 12:48:45;;;;;;;27.00;14.10;;;6.00;70.50;;;;;;5104725;28;20066;-70
2023/01/21 12:51:29;;;;;;;24.40;13.03;;;6.00;70.40;;;;;;5096761;28;20035;-69
2023/01/21 12:54:22;;;;;;;25.33;12.67;;;6.00;70.40;;;;;;5114441;28;20032;-69
2023/01/21 12:56:55;;;;;;;25.53;12.93;;;6.10;70.30;;;;;;5111748;28;20020;-68
2023/01/21 12:59:38;;;;;;;25.00;14.20;;;6.10;70.30;;;;;;5105295;28;20023;-67